RAK weather

Menara Airport
Marrakech, Marrakech Province, Morocco

Public forecast

Using degrees Celsius for public forecast. Weather courtesy of forecast.io.

Current aviation weather report (METAR) for Menara Airport

Retrieved 2019/10/13 23:30 UTC (47 seconds ago):

GMMX 132330Z 29009KT 260V320 9999 BKN016 20/16 Q1020 NOSIG

Aviation forecast (TAF) for Menara Airport

Retrieved 2019/10/13 18:30 UTC (5 hours ago):

TAF GMMX 131700Z 1318/1424 28006KT 8000 SCT026 TEMPO 1318/1322 32016KT FEW033TCU SCT100